Time;durP1;ratioP1;P1;durP2;ratioP2;P2;SDS_P1;SDS_P2;PMS_P1;PMS_P2;Temp;Humidity;BMP_temperature;BMP_pressure;BME280_temperature;BME280_humidity;BME280_pressure;Samples;Min_cycle;Max_cycle;Signal;HPM_P1;HPM_P2
2021/05/18 00:03:10;;;;;;;6.15;3.35;;;;;;;10.63;50.86;100617.03;7976889;28;20041;-66
2021/05/18 00:07:01;;;;;;;8.02;3.67;;;;;;;10.62;50.94;100619.75;7976603;28;20127;-66
2021/05/18 00:15:12;;;;;;;9.05;3.95;;;;;;;10.61;51.40;100618.91;7970508;28;20151;-66
2021/05/18 00:19:04;;;;;;;9.60;4.37;;;;;;;10.62;51.10;100617.97;7973779;28;21311;-66
2021/05/18 00:22:55;;;;;;;7.00;3.70;;;;;;;10.64;51.22;100617.88;7965212;28;20487;-66
2021/05/18 00:26:47;;;;;;;8.95;4.55;;;;;;;10.63;51.09;100609.16;7973042;28;20224;-66
2021/05/18 00:30:38;;;;;;;6.53;4.05;;;;;;;10.65;51.19;100616.94;7979506;28;20045;-66
2021/05/18 00:34:28;;;;;;;5.18;4.10;;;;;;;10.64;51.32;100617.88;7979059;28;20041;-66
2021/05/18 00:38:23;;;;;;;8.95;3.80;;;;;;;10.65;51.43;100625.63;7980837;28;20079;-66
2021/05/18 00:42:19;;;;;;;8.32;4.20;;;;;;;10.66;51.56;100621.22;7976969;28;20041;-66
2021/05/18 00:46:11;;;;;;;6.10;3.70;;;;;;;10.65;51.62;100623.00;7980237;28;20045;-66
2021/05/18 00:50:03;;;;;;;6.45;4.20;;;;;;;10.65;51.79;100624.81;7975358;28;20682;-65
2021/05/18 00:53:55;;;;;;;8.38;3.92;;;;;;;10.64;51.79;100620.50;7973339;28;20072;-65
2021/05/18 01:02:16;;;;;;;4.88;3.53;;;;;;;10.59;51.92;100620.81;7955950;28;20045;-66
2021/05/18 01:10:17;;;;;;;5.13;3.67;;;;;;;10.55;52.24;100626.38;7972036;28;20040;-66
2021/05/18 01:14:14;;;;;;;5.03;4.15;;;;;;;10.54;52.20;100615.03;7978315;28;20041;-65
2021/05/18 01:18:06;;;;;;;8.50;4.13;;;;;;;10.53;52.37;100620.44;7977058;28;20046;-65
2021/05/18 01:21:59;;;;;;;5.95;3.88;;;;;;;10.51;52.38;100625.78;7963129;28;20033;-66
2021/05/18 01:25:51;;;;;;;6.40;3.78;;;;;;;10.51;52.46;100622.31;7972959;28;20128;-66
2021/05/18 01:29:42;;;;;;;4.45;3.08;;;;;;;10.49;52.11;100629.41;7973696;28;20490;-66
2021/05/18 01:33:33;;;;;;;4.68;3.42;;;;;;;10.51;52.65;100625.78;7971768;28;20065;-65
2021/05/18 01:37:24;;;;;;;5.80;2.92;;;;;;;10.42;52.84;100621.13;7971282;28;20036;-66
2021/05/18 01:45:30;;;;;;;3.35;2.33;;;;;;;10.46;52.81;100627.84;7978657;28;20045;-66
2021/05/18 01:49:21;;;;;;;3.22;2.30;;;;;;;10.47;52.97;100636.56;7978254;28;20032;-66
2021/05/18 01:53:15;;;;;;;5.63;1.77;;;;;;;10.46;53.04;100640.13;7976701;28;20512;-66
2021/05/18 01:57:20;;;;;;;3.17;1.58;;;;;;;10.45;53.08;100633.19;7974867;28;20025;-66
2021/05/18 02:01:21;;;;;;;3.88;1.77;;;;;;;10.44;53.16;100636.78;7974044;28;20448;-66
2021/05/18 02:05:16;;;;;;;2.20;1.10;;;;;;;10.41;53.34;100632.56;7973508;28;20478;-66
2021/05/18 02:09:16;;;;;;;1.75;1.30;;;;;;;10.44;53.27;100645.50;7974771;28;20033;-66
2021/05/18 02:13:10;;;;;;;3.40;1.92;;;;;;;10.43;53.54;100646.44;7972273;28;20505;-65
2021/05/18 02:17:30;;;;;;;1.85;1.30;;;;;;;10.45;53.36;100651.56;7970347;28;20042;-66
2021/05/18 02:25:33;;;;;;;1.60;1.35;;;;;;;10.37;53.30;100652.09;7973950;28;20027;-66
2021/05/18 02:29:42;;;;;;;1.30;1.00;;;;;;;10.34;53.69;100636.56;7974462;28;20115;-66
2021/05/18 02:33:34;;;;;;;2.47;1.10;;;;;;;10.38;53.29;100648.53;7977385;28;20037;-66
2021/05/18 02:37:25;;;;;;;1.27;1.17;;;;;;;10.38;53.39;100648.53;7980354;28;20033;-66
2021/05/18 02:41:16;;;;;;;1.20;1.10;;;;;;;10.38;53.31;100647.69;7981052;28;20087;-66
2021/05/18 02:49:22;;;;;;;1.98;1.10;;;;;;;10.36;53.55;100650.44;7980647;28;20034;-66
2021/05/18 02:53:13;;;;;;;1.20;1.10;;;;;;;10.37;53.71;100649.47;7979348;28;20486;-66
2021/05/18 02:57:07;;;;;;;2.47;1.80;;;;;;;10.37;53.63;100646.84;7977642;28;20105;-66
2021/05/18 03:00:57;;;;;;;1.45;1.10;;;;;;;10.37;53.54;100649.47;7977640;28;20465;-66
2021/05/18 03:04:48;;;;;;;2.92;1.45;;;;;;;10.35;53.85;100642.66;7976284;28;20045;-66
2021/05/18 03:08:40;;;;;;;2.13;1.35;;;;;;;10.37;53.75;100644.22;7977942;28;20032;-66
2021/05/18 03:12:31;;;;;;;1.83;1.40;;;;;;;10.37;53.96;100644.22;7979294;28;20021;-66
2021/05/18 03:16:22;;;;;;;1.75;1.15;;;;;;;10.37;54.02;100643.38;7981214;28;20095;-66
2021/05/18 03:20:15;;;;;;;1.20;1.10;;;;;;;10.36;53.83;100647.81;7979584;28;20048;-66
2021/05/18 03:24:07;;;;;;;2.00;1.40;;;;;;;10.38;53.90;100650.31;7980588;28;20052;-66
2021/05/18 03:27:58;;;;;;;4.10;1.65;;;;;;;10.37;53.95;100651.25;7975485;28;20457;-66
2021/05/18 03:36:00;;;;;;;3.08;1.33;;;;;;;10.36;54.17;100647.81;7970470;28;20033;-66
2021/05/18 03:39:54;;;;;;;2.47;1.73;;;;;;;10.37;54.17;100649.47;7976183;28;20048;-66
2021/05/18 03:44:05;;;;;;;3.30;2.20;;;;;;;10.37;54.31;100656.50;7973919;28;20052;-66
2021/05/18 03:52:24;;;;;;;5.85;2.03;;;;;;;10.35;54.44;100664.50;7971907;28;20041;-66
2021/05/18 04:04:27;;;;;;;8.85;3.13;;;;;;;10.35;54.44;100674.16;7977748;28;20056;-65
2021/05/18 05:09:29;;;;;;;5.82;2.03;;;;;;;10.48;55.03;100701.28;7972601;28;20041;-66
2021/05/18 05:17:29;;;;;;;3.83;2.40;;;;;;;10.57;55.23;100714.63;7978759;28;20049;-66
2021/05/18 05:21:26;;;;;;;9.23;2.60;;;;;;;10.58;55.26;100718.09;7976518;28;20116;-66
2021/05/18 05:25:16;;;;;;;10.55;2.67;;;;;;;10.64;55.26;100713.28;7982897;28;20115;-66
2021/05/18 05:29:08;;;;;;;8.13;2.55;;;;;;;10.70;55.33;100718.09;7972060;28;20372;-66
2021/05/18 05:32:58;;;;;;;6.38;2.65;;;;;;;10.76;55.49;100716.00;7975198;28;20095;-66
2021/05/18 05:36:49;;;;;;;6.43;2.47;;;;;;;10.79;55.47;100715.78;7973086;28;20041;-66
2021/05/18 05:40:41;;;;;;;5.07;2.63;;;;;;;10.81;56.06;100717.38;7973843;28;20041;-66
2021/05/18 05:44:32;;;;;;;6.28;2.47;;;;;;;10.90;55.71;100719.34;7971479;28;20056;-66
2021/05/18 05:48:24;;;;;;;5.05;2.60;;;;;;;10.91;55.69;100715.78;7971584;28;20518;-66
2021/05/18 05:52:19;;;;;;;6.45;2.55;;;;;;;11.01;55.63;100726.50;7971384;28;20053;-66
2021/05/18 05:56:10;;;;;;;7.00;2.10;;;;;;;11.08;55.72;100728.59;7978268;28;20033;-66
2021/05/18 06:00:02;;;;;;;3.50;2.15;;;;;;;11.13;55.59;100731.72;7976715;28;20040;-66
2021/05/18 06:04:00;;;;;;;5.88;2.75;;;;;;;11.17;55.62;100727.09;7976108;28;20466;-66
2021/05/18 06:07:52;;;;;;;5.07;2.67;;;;;;;11.21;55.70;100732.97;7981121;28;20099;-66
2021/05/18 06:11:57;;;;;;;6.57;3.22;;;;;;;11.24;55.86;100738.84;7985845;28;20033;-66
2021/05/18 06:49:13;;;;;;;8.13;3.65;;;;;;;12.11;55.62;100767.59;7973940;28;20680;-66
2021/05/18 06:53:04;;;;;;;10.05;4.38;;;;;;;12.18;55.62;100768.00;7980478;28;20041;-66
2021/05/18 06:57:00;;;;;;;5.85;3.78;;;;;;;12.25;55.41;100770.06;7987434;28;20037;-66
2021/05/18 07:00:50;;;;;;;7.45;4.13;;;;;;;12.28;55.59;100767.19;7987121;28;20055;-66
2021/05/18 07:04:54;;;;;;;7.40;4.13;;;;;;;12.82;55.67;100775.38;7986283;28;20666;-66
2021/05/18 07:12:38;;;;;;;10.10;5.35;;;;;;;14.38;55.00;100776.94;7983692;28;20029;-67
2021/05/18 07:16:29;;;;;;;8.73;4.05;;;;;;;14.36;54.56;100782.34;7977868;28;20076;-66
2021/05/18 07:20:20;;;;;;;6.88;3.78;;;;;;;14.17;54.09;100783.00;7977105;28;20033;-66
2021/05/18 07:24:18;;;;;;;12.35;4.80;;;;;;;13.93;54.07;100790.28;7980940;28;20593;-66
2021/05/18 07:28:09;;;;;;;13.40;5.10;;;;;;;13.62;54.23;100793.75;7972460;28;20104;-66
2021/05/18 07:31:59;;;;;;;6.78;4.25;;;;;;;13.42;53.99;100803.22;7975826;28;20518;-66
2021/05/18 07:35:57;;;;;;;7.32;4.43;;;;;;;13.28;53.97;100792.91;7983386;28;20033;-66
2021/05/18 07:39:48;;;;;;;7.57;4.60;;;;;;;13.22;54.21;100804.75;7983046;28;20103;-66
2021/05/18 07:43:39;;;;;;;8.00;4.85;;;;;;;13.19;54.27;100801.53;7980158;28;20304;-66
2021/05/18 07:47:34;;;;;;;8.10;4.72;;;;;;;13.25;54.36;100801.91;7979339;28;20052;-66
2021/05/18 08:07:46;;;;;;;9.18;4.22;;;;;;;12.60;54.04;100811.41;7975295;28;20033;-66
2021/05/18 08:11:37;;;;;;;6.55;5.05;;;;;;;12.79;54.38;100815.16;7987274;28;20387;-66
2021/05/18 10:36:55;;;;;;;4.40;2.70;;;;;;;16.41;48.25;100796.91;7975423;28;20087;-67
2021/05/18 10:40:46;;;;;;;4.53;3.10;;;;;;;16.50;48.20;100797.88;7970806;28;20033;-67
2021/05/18 10:44:56;;;;;;;3.22;2.72;;;;;;;16.51;47.67;100805.69;7979319;28;20029;-67
2021/05/18 10:48:52;;;;;;;5.50;2.72;;;;;;;16.53;47.74;100798.44;7976623;28;20095;-66
2021/05/18 10:52:45;;;;;;;2.90;1.92;;;;;;;16.56;47.52;100800.81;7981448;28;20091;-66
2021/05/18 10:57:00;;;;;;;4.18;2.45;;;;;;;16.59;47.47;100794.38;7985336;28;20512;-66
2021/05/18 11:00:50;;;;;;;2.50;2.13;;;;;;;16.69;47.38;100794.38;7976189;28;20037;-67
2021/05/18 11:04:47;;;;;;;4.07;2.63;;;;;;;16.81;47.37;100787.94;7979596;28;20079;-67
2021/05/18 11:08:37;;;;;;;6.78;2.20;;;;;;;16.94;47.23;100791.97;7985033;28;20041;-66
2021/05/18 11:12:28;;;;;;;3.55;2.00;;;;;;;17.02;46.70;100785.94;7984119;28;20086;-67
2021/05/18 11:16:19;;;;;;;3.08;1.98;;;;;;;17.04;46.25;100786.63;7987715;28;20545;-67
2021/05/18 11:20:24;;;;;;;4.15;1.92;;;;;;;17.05;45.87;100793.59;7975600;28;20041;-67
2021/05/18 11:24:14;;;;;;;2.00;1.70;;;;;;;17.02;45.90;100783.28;7978981;28;20025;-67
2021/05/18 11:28:13;;;;;;;2.47;1.90;;;;;;;16.99;45.47;100795.00;7979838;28;20043;-67
2021/05/18 11:32:10;;;;;;;3.15;2.10;;;;;;;16.96;45.61;100779.38;7973924;28;20098;-67
2021/05/18 11:36:16;;;;;;;3.42;2.35;;;;;;;17.00;45.56;100785.25;7978769;28;20029;-66
2021/05/18 11:40:14;;;;;;;2.33;1.70;;;;;;;17.00;45.48;100786.06;7975209;28;20052;-67
2021/05/18 11:44:07;;;;;;;4.13;2.25;;;;;;;16.99;45.15;100780.91;7974854;28;20061;-67
2021/05/18 11:48:11;;;;;;;3.97;2.17;;;;;;;16.98;45.00;100784.56;7977810;28;20429;-67
2021/05/18 11:52:02;;;;;;;5.82;1.90;;;;;;;16.92;44.87;100787.78;7988917;28;20052;-67
2021/05/18 11:55:54;;;;;;;2.80;1.98;;;;;;;16.88;44.54;100789.00;7986151;28;20569;-66
2021/05/18 11:59:46;;;;;;;2.33;2.05;;;;;;;16.89;45.10;100790.69;7979093;28;20045;-67
2021/05/18 12:03:37;;;;;;;3.65;2.30;;;;;;;16.87;44.65;100792.63;7979619;28;20041;-67
2021/05/18 12:07:32;;;;;;;3.30;2.15;;;;;;;16.82;44.39;100798.41;7977156;28;20083;-67
2021/05/18 12:11:23;;;;;;;1.45;1.35;;;;;;;16.72;44.21;100823.25;7981873;28;20037;-67
2021/05/18 12:15:14;;;;;;;1.95;1.70;;;;;;;16.57;43.73;100820.22;7976147;28;20484;-66
2021/05/18 12:19:04;;;;;;;2.50;1.65;;;;;;;16.42;43.43;100827.75;7976132;28;20497;-67
2021/05/18 12:22:55;;;;;;;6.28;2.13;;;;;;;16.30;43.64;100826.22;7973508;28;20029;-66
2021/05/18 12:27:00;;;;;;;2.55;1.70;;;;;;;16.15;43.43;100825.81;7973627;28;20025;-66
2021/05/18 12:30:51;;;;;;;5.55;1.80;;;;;;;16.03;43.47;100826.03;7980178;28;20034;-66
2021/05/18 12:34:42;;;;;;;5.82;1.70;;;;;;;15.92;43.88;100836.75;7975747;28;20032;-66
2021/05/18 12:38:33;;;;;;;4.97;1.42;;;;;;;15.76;44.16;100826.66;7978646;28;20033;-67
2021/05/18 12:42:26;;;;;;;2.00;1.50;;;;;;;15.73;44.71;100814.56;7978810;28;20021;-67
2021/05/18 12:46:17;;;;;;;1.92;1.30;;;;;;;15.79;45.06;100820.28;7977119;28;20037;-66
2021/05/18 12:50:13;;;;;;;1.75;1.40;;;;;;;15.84;44.87;100818.03;7974369;28;20033;-66
2021/05/18 12:54:04;;;;;;;2.03;1.38;;;;;;;15.86;44.81;100819.59;7982277;28;20040;-66
2021/05/18 12:58:03;;;;;;;5.13;1.40;;;;;;;15.88;44.92;100822.09;7973561;28;20018;-66
2021/05/18 13:01:54;;;;;;;1.92;1.20;;;;;;;15.89;44.98;100824.63;7972520;28;20083;-67
2021/05/18 13:05:52;;;;;;;1.30;1.20;;;;;;;15.86;44.81;100826.69;7971913;28;20082;-66
2021/05/18 13:09:42;;;;;;;;;;;;;;;15.72;45.36;100819.97;7973250;28;20038;-66
2021/05/18 13:13:56;;;;;;;0.80;0.75;;;;;;;15.79;44.92;100818.44;7987007;28;20444;-66
2021/05/18 13:17:55;;;;;;;1.02;0.93;;;;;;;15.85;45.21;100814.44;7972451;28;20730;-67
2021/05/18 13:21:56;;;;;;;1.10;1.00;;;;;;;15.91;44.75;100805.94;7983031;28;20037;-67
2021/05/18 13:29:56;;;;;;;1.58;1.20;;;;;;;16.08;44.88;100819.34;7980384;28;20021;-67
2021/05/18 13:33:47;;;;;;;4.18;1.75;;;;;;;16.15;44.83;100820.50;7974116;28;20049;-67
2021/05/18 13:37:37;;;;;;;2.75;2.28;;;;;;;16.16;44.72;100816.06;7971968;28;20452;-67
2021/05/18 13:41:28;;;;;;;2.22;1.70;;;;;;;16.20;44.64;100821.91;7974688;28;20033;-67
2021/05/18 13:45:22;;;;;;;2.85;2.05;;;;;;;16.18;44.70;100819.38;7973147;28;20017;-67
2021/05/18 13:49:13;;;;;;;1.42;1.30;;;;;;;16.15;44.06;100820.50;7964006;28;20036;-67
2021/05/18 13:53:05;;;;;;;1.42;1.30;;;;;;;16.14;44.02;100829.44;7985835;28;20087;-68
2021/05/18 13:56:57;;;;;;;1.85;1.08;;;;;;;16.12;44.03;100822.56;7987756;28;20064;-67
2021/05/18 14:00:48;;;;;;;1.45;1.33;;;;;;;16.10;44.01;100824.50;7980405;28;20044;-66
2021/05/18 14:04:38;;;;;;;1.63;1.40;;;;;;;16.13;43.97;100826.91;7982199;28;20029;-67
2021/05/18 14:08:37;;;;;;;1.90;1.40;;;;;;;16.21;43.94;100819.09;7984983;28;20047;-67
2021/05/18 14:12:28;;;;;;;4.43;1.65;;;;;;;16.32;43.91;100826.94;7968991;28;20048;-66
2021/05/18 14:16:21;;;;;;;2.85;1.60;;;;;;;16.42;43.72;100832.22;7967005;28;20063;-67
2021/05/18 14:20:13;;;;;;;3.05;2.33;;;;;;;16.46;43.67;100828.31;7977191;28;20029;-67
2021/05/18 14:24:18;;;;;;;2.78;2.20;;;;;;;16.50;43.23;100829.69;7977231;28;20033;-67
2021/05/18 14:28:08;;;;;;;3.42;2.40;;;;;;;16.40;43.51;100811.16;7971867;28;20033;-67
2021/05/18 14:31:59;;;;;;;3.05;2.28;;;;;;;16.42;43.30;100821.59;7969210;28;20048;-67
2021/05/18 14:35:49;;;;;;;4.68;2.50;;;;;;;16.42;43.31;100818.97;7973691;28;20899;-66
2021/05/18 14:44:04;;;;;;;3.45;2.53;;;;;;;16.55;43.33;100822.16;7977817;28;20450;-67
2021/05/18 14:55:55;;;;;;;2.95;2.30;;;;;;;16.53;43.58;100832.91;7975482;28;20644;-66
2021/05/18 14:59:46;;;;;;;3.30;2.40;;;;;;;16.46;44.27;100831.81;7978928;28;20785;-66
2021/05/18 15:03:37;;;;;;;1.42;1.33;;;;;;;16.41;44.08;100819.97;7972745;28;20046;-66
2021/05/18 15:07:27;;;;;;;2.00;1.55;;;;;;;16.40;44.06;100827.06;7976589;28;20469;-66
2021/05/18 15:11:18;;;;;;;3.75;1.60;;;;;;;16.37;43.69;100824.69;7977219;28;20045;-67
2021/05/18 15:15:09;;;;;;;2.97;1.60;;;;;;;16.41;44.05;100830.56;7978040;28;20034;-66
2021/05/18 15:19:34;;;;;;;1.63;1.52;;;;;;;16.45;43.93;100827.47;7977531;28;20521;-66
2021/05/18 15:23:18;;;;;;;3.30;1.75;;;;;;;16.45;44.08;100821.34;7973534;28;20073;-66
2021/05/18 15:27:10;;;;;;;3.25;2.15;;;;;;;16.42;43.84;100829.56;7981852;28;20029;-66
2021/05/18 15:31:00;;;;;;;5.50;2.38;;;;;;;16.29;43.81;100831.66;7970588;28;20041;-66
2021/05/18 15:34:51;;;;;;;3.83;2.35;;;;;;;16.18;43.76;100845.88;7971014;28;20096;-66
2021/05/18 15:38:47;;;;;;;2.78;2.33;;;;;;;16.11;43.77;100842.09;7973790;28;20068;-66
2021/05/18 15:42:38;;;;;;;2.80;2.00;;;;;;;16.05;43.74;100840.81;7976579;28;20047;-66
2021/05/18 15:46:29;;;;;;;2.63;1.80;;;;;;;16.03;43.64;100866.63;7975060;28;20064;-67
2021/05/18 15:50:20;;;;;;;6.90;1.88;;;;;;;15.96;43.38;100870.78;7976807;28;20049;-66
2021/05/18 15:54:11;;;;;;;2.10;1.73;;;;;;;15.92;43.37;100855.28;7977602;28;20028;-66
2021/05/18 15:58:01;;;;;;;4.93;1.98;;;;;;;15.90;43.35;100854.59;7978475;28;20113;-66
2021/05/18 16:01:53;;;;;;;3.00;2.10;;;;;;;15.89;43.49;100863.50;7972763;28;20547;-66
2021/05/18 16:05:44;;;;;;;2.15;1.95;;;;;;;15.85;43.11;100855.00;7974883;28;20047;-66
2021/05/18 16:09:35;;;;;;;2.63;1.90;;;;;;;15.84;43.50;100860.41;7978887;28;20029;-66
2021/05/18 16:13:40;;;;;;;3.88;2.28;;;;;;;15.79;43.53;100855.53;7977371;28;20037;-66
2021/05/18 16:17:38;;;;;;;2.83;1.77;;;;;;;15.72;43.67;100860.53;7977320;28;20726;-66
2021/05/18 16:21:29;;;;;;;3.05;2.30;;;;;;;15.62;43.49;100864.94;7980251;28;20656;-66
2021/05/18 16:25:20;;;;;;;2.85;2.30;;;;;;;15.55;43.86;100865.63;7972861;28;20033;-66
2021/05/18 16:29:10;;;;;;;3.65;2.28;;;;;;;15.47;43.90;100874.25;7978273;28;20036;-67
2021/05/18 16:33:02;;;;;;;3.20;2.45;;;;;;;15.41;43.74;100881.88;7973191;28;20060;-66
2021/05/18 16:36:53;;;;;;;3.20;2.10;;;;;;;15.37;44.09;100878.66;7971355;28;20034;-66
2021/05/18 16:40:44;;;;;;;2.53;2.05;;;;;;;15.35;44.26;100872.66;7978063;28;20040;-66
2021/05/18 16:44:34;;;;;;;1.83;1.73;;;;;;;15.33;44.19;100877.25;7975654;28;20029;-66
2021/05/18 16:48:28;;;;;;;2.83;2.15;;;;;;;15.32;44.08;100878.22;7973668;28;20048;-66
2021/05/18 16:52:19;;;;;;;4.00;2.22;;;;;;;15.27;44.04;100878.56;7971130;28;20029;-75
2021/05/18 16:56:10;;;;;;;4.45;2.50;;;;;;;15.24;44.36;100884.13;7973537;28;20624;-72
2021/05/18 17:00:01;;;;;;;3.13;2.25;;;;;;;15.14;44.29;100879.75;7973565;28;20041;-73
2021/05/18 17:03:51;;;;;;;3.60;2.30;;;;;;;15.09;44.37;100895.16;7968926;28;20035;-74
2021/05/18 17:07:42;;;;;;;4.25;2.42;;;;;;;15.06;44.77;100898.06;7974237;28;20037;-70
2021/05/18 17:11:32;;;;;;;2.55;2.10;;;;;;;15.02;44.90;100899.31;7975899;28;20534;-69
2021/05/18 17:15:24;;;;;;;3.63;2.22;;;;;;;15.01;45.07;100910.84;7974512;28;20021;-68
2021/05/18 17:19:14;;;;;;;2.60;2.20;;;;;;;15.00;45.16;100914.47;7975080;28;20052;-68
2021/05/18 17:23:06;;;;;;;2.17;1.92;;;;;;;14.94;44.84;100907.03;7969254;28;20021;-68
2021/05/18 17:26:58;;;;;;;2.97;2.38;;;;;;;14.92;45.22;100907.16;7972277;28;20061;-66
2021/05/18 17:30:49;;;;;;;2.38;1.77;;;;;;;14.84;45.52;100909.59;7974149;28;20086;-74
2021/05/18 17:34:40;;;;;;;3.40;2.05;;;;;;;14.88;45.28;100918.16;7964175;28;20457;-72
2021/05/18 17:38:30;;;;;;;3.47;2.40;;;;;;;14.84;45.95;100922.84;7955564;28;20045;-71
2021/05/18 17:42:21;;;;;;;2.75;2.30;;;;;;;14.84;45.59;100922.84;7971116;28;20085;-70
2021/05/18 17:46:13;;;;;;;2.53;1.80;;;;;;;14.86;45.87;100922.72;7973342;28;20449;-70
2021/05/18 17:50:06;;;;;;;3.75;2.58;;;;;;;14.83;45.59;100922.00;7957371;28;20495;-68
2021/05/18 17:53:56;;;;;;;8.20;2.42;;;;;;;14.84;45.85;100925.47;7970082;28;20111;-68
2021/05/18 17:57:47;;;;;;;3.50;2.53;;;;;;;14.83;46.04;100928.28;7970130;28;20034;-67
2021/05/18 18:01:38;;;;;;;2.63;2.28;;;;;;;14.78;46.39;100928.66;7967653;28;20101;-68
2021/05/18 18:05:29;;;;;;;4.00;2.50;;;;;;;14.70;46.08;100931.94;7974107;28;20033;-68
2021/05/18 18:09:23;;;;;;;4.28;2.58;;;;;;;14.64;46.59;100936.88;7976489;28;20592;-68
2021/05/18 18:13:13;;;;;;;3.13;2.58;;;;;;;14.58;46.41;100946.16;7971518;28;20666;-67
2021/05/18 18:17:10;;;;;;;5.43;2.70;;;;;;;14.55;46.68;100950.81;7970593;28;20127;-68
2021/05/18 18:21:05;;;;;;;4.80;2.80;;;;;;;14.50;46.78;100953.03;7967097;28;20033;-67
2021/05/18 18:24:55;;;;;;;3.85;2.85;;;;;;;14.47;46.94;100966.47;7967994;28;20108;-67
2021/05/18 18:28:46;;;;;;;3.90;2.92;;;;;;;14.43;47.25;100968.53;7965960;28;20086;-68
2021/05/18 18:32:37;;;;;;;3.20;2.67;;;;;;;14.40;47.27;100975.84;7966161;28;20553;-68
2021/05/18 18:36:27;;;;;;;3.95;2.53;;;;;;;14.33;47.44;100968.41;7973696;28;20037;-69
2021/05/18 18:40:19;;;;;;;3.38;2.38;;;;;;;14.28;47.31;100969.72;7972286;28;20043;-66
2021/05/18 18:44:09;;;;;;;3.72;2.83;;;;;;;14.27;47.41;100971.53;7971626;28;20025;-66
2021/05/18 18:48:00;;;;;;;4.85;2.35;;;;;;;14.22;47.82;100978.97;7971542;28;20047;-66
2021/05/18 18:51:51;;;;;;;4.50;2.80;;;;;;;14.20;47.83;100988.00;7972360;28;20053;-66
2021/05/18 18:55:43;;;;;;;3.88;2.50;;;;;;;14.17;47.97;100993.53;7971230;28;20040;-68
2021/05/18 18:59:33;;;;;;;3.53;2.30;;;;;;;14.11;47.56;100999.28;7989016;28;20037;-69
2021/05/18 19:03:28;;;;;;;3.30;2.55;;;;;;;14.07;48.08;100995.22;7951715;28;20747;-68
2021/05/18 19:15:19;;;;;;;3.10;2.45;;;;;;;13.86;47.88;101003.00;7967703;28;20752;-68
2021/05/18 19:19:12;;;;;;;5.30;2.60;;;;;;;13.82;48.15;101006.84;7980899;28;20025;-68
2021/05/18 19:23:04;;;;;;;7.75;2.72;;;;;;;13.76;48.02;101015.22;7976214;28;20037;-67
2021/05/18 19:26:55;;;;;;;5.55;2.33;;;;;;;13.69;48.21;101017.50;7979133;28;20033;-67
2021/05/18 19:30:46;;;;;;;4.68;2.22;;;;;;;13.62;48.33;101016.31;7971099;28;20116;-67
2021/05/18 19:34:40;;;;;;;6.72;2.38;;;;;;;13.54;48.00;101021.34;7972839;28;20051;-68
2021/05/18 19:51:06;;;;;;;2.53;2.22;;;;;;;13.21;48.11;101032.59;7978503;28;19923;-67
2021/05/18 19:54:57;;;;;;;3.15;2.55;;;;;;;13.17;48.35;101036.41;7977174;28;20033;-67
2021/05/18 19:59:00;;;;;;;3.95;2.17;;;;;;;13.11;48.48;101044.78;7955039;28;20046;-71
2021/05/18 20:19:55;;;;;;;;;;;;;;;12.83;48.65;101059.16;7867724;28;20038;-70
2021/05/18 20:23:45;;;;;;;3.92;3.20;;;;;;;12.86;49.07;101064.19;7909227;28;19927;-69
2021/05/18 20:27:36;;;;;;;6.03;3.65;;;;;;;12.85;48.79;101078.31;7971384;28;20038;-69
2021/05/18 20:31:27;;;;;;;5.97;3.63;;;;;;;12.81;49.08;101074.22;7970005;28;20045;-65
2021/05/18 20:38:28;;;;;;;6.00;3.72;;;;;;;12.75;48.90;101066.78;7971441;28;20029;-66
2021/05/18 20:39:31;;;;;;;4.35;3.40;;;;;;;12.73;48.94;101083.63;7962749;28;21022;-65
2021/05/18 20:43:22;;;;;;;7.38;3.63;;;;;;;12.67;49.02;101087.56;7969928;28;20037;-66
2021/05/18 20:47:13;;;;;;;4.80;3.67;;;;;;;12.61;48.95;101100.31;7970867;28;20053;-66
2021/05/18 20:51:07;;;;;;;3.97;3.25;;;;;;;12.55;49.11;101088.41;7974561;28;20099;-66
2021/05/18 20:54:58;;;;;;;7.47;3.78;;;;;;;12.47;49.06;101094.22;7977586;28;20030;-65
2021/05/18 20:58:48;;;;;;;4.68;3.78;;;;;;;12.41;49.11;101101.69;7979297;28;20041;-66
2021/05/18 21:02:39;;;;;;;4.82;3.83;;;;;;;12.34;48.92;101105.72;7978046;28;20043;-66
2021/05/18 21:06:34;;;;;;;6.72;3.88;;;;;;;12.26;48.91;101103.63;7975533;28;20120;-65
2021/05/18 21:10:33;;;;;;;9.35;4.15;;;;;;;12.18;48.71;101111.22;7975966;28;20032;-65
2021/05/18 21:18:37;;;;;;;5.38;4.10;;;;;;;12.03;49.07;101115.72;7944007;28;20045;-66
2021/05/18 21:22:28;;;;;;;6.00;4.57;;;;;;;11.93;49.00;101105.94;7974040;28;20041;-66
2021/05/18 21:26:19;;;;;;;6.20;4.45;;;;;;;11.89;49.11;101113.19;7970681;28;20063;-66
2021/05/18 21:30:10;;;;;;;6.55;4.43;;;;;;;11.77;48.90;101103.47;7972217;28;20494;-66
2021/05/18 21:34:05;;;;;;;7.05;4.60;;;;;;;11.73;49.06;101120.41;7979699;28;20748;-65
2021/05/18 21:37:56;;;;;;;6.10;4.13;;;;;;;11.69;49.01;101124.19;7978783;28;20036;-66
2021/05/18 21:41:53;;;;;;;5.18;4.03;;;;;;;11.63;49.06;101124.63;7978159;28;20041;-66
2021/05/18 21:45:43;;;;;;;4.88;3.67;;;;;;;11.56;49.16;101132.03;7976811;28;20524;-65
2021/05/18 21:49:34;;;;;;;6.63;4.35;;;;;;;11.49;49.20;101129.91;7974099;28;20037;-65
2021/05/18 21:53:25;;;;;;;6.68;5.43;;;;;;;11.44;49.15;101129.41;7975853;28;20037;-66
2021/05/18 21:57:16;;;;;;;7.40;5.18;;;;;;;11.38;49.12;101129.78;7974820;28;20056;-66
2021/05/18 22:01:06;;;;;;;7.68;4.85;;;;;;;11.33;49.26;101131.84;7974316;28;20052;-65
2021/05/18 22:04:57;;;;;;;7.38;4.75;;;;;;;11.28;49.31;101134.78;7973292;28;20490;-66
2021/05/18 22:09:16;;;;;;;6.93;4.53;;;;;;;11.22;48.86;101135.19;7972756;28;20037;-65
2021/05/18 22:13:17;;;;;;;5.90;4.47;;;;;;;11.17;49.35;101132.00;7970869;28;20041;-66
2021/05/18 22:29:35;;;;;;;7.25;5.05;;;;;;;10.92;49.41;101143.25;7970914;28;20022;-67
2021/05/18 22:33:26;;;;;;;8.60;4.43;;;;;;;10.88;49.37;101147.00;7975449;28;20071;-66
2021/05/18 22:37:18;;;;;;;6.95;4.93;;;;;;;10.84;49.39;101142.88;7974667;28;20033;-67
2021/05/18 22:41:08;;;;;;;6.38;4.03;;;;;;;10.78;49.58;101142.44;7974260;28;20041;-66
2021/05/18 22:44:59;;;;;;;6.20;3.72;;;;;;;10.73;49.68;101150.59;7973932;28;20107;-66
2021/05/18 22:48:50;;;;;;;6.72;3.78;;;;;;;10.64;49.55;101135.41;7970589;28;20168;-66
2021/05/18 22:52:40;;;;;;;8.43;3.67;;;;;;;10.60;49.54;101140.00;7978009;28;20076;-66
2021/05/18 22:56:31;;;;;;;5.05;3.72;;;;;;;10.57;49.36;101142.00;7975558;28;20444;-66
2021/05/18 23:00:22;;;;;;;6.85;3.80;;;;;;;10.53;49.52;101151.81;7975953;28;20056;-66
2021/05/18 23:04:13;;;;;;;4.03;2.83;;;;;;;10.49;49.56;101157.31;7989783;28;20088;-66
2021/05/18 23:08:05;;;;;;;6.00;2.83;;;;;;;10.44;49.56;101146.28;7982507;28;20048;-66
2021/05/18 23:11:55;;;;;;;3.45;2.63;;;;;;;10.42;49.46;101154.22;7976197;28;20029;-66
2021/05/18 23:15:46;;;;;;;4.18;2.85;;;;;;;10.36;49.69;101159.03;7978860;28;20033;-66
2021/05/18 23:19:37;;;;;;;4.80;2.35;;;;;;;10.35;49.58;101160.81;7979765;28;20025;-66
2021/05/18 23:23:27;;;;;;;4.18;2.55;;;;;;;10.33;49.69;101164.44;7975307;28;20028;-66
2021/05/18 23:27:18;;;;;;;3.50;2.67;;;;;;;10.28;49.48;101159.47;7974368;28;20061;-66
2021/05/18 23:31:08;;;;;;;3.45;2.10;;;;;;;10.23;49.69;101164.16;7977777;28;20029;-66
2021/05/18 23:34:59;;;;;;;3.80;2.13;;;;;;;10.20;49.42;101166.97;7976489;28;20516;-66
2021/05/18 23:38:51;;;;;;;3.83;2.30;;;;;;;10.14;49.64;101168.19;7975207;28;20117;-66
2021/05/18 23:42:42;;;;;;;3.75;2.17;;;;;;;10.11;49.89;101159.66;7974909;28;20516;-66
2021/05/18 23:46:33;;;;;;;3.00;2.10;;;;;;;10.13;50.01;101163.88;7986514;28;20064;-66
2021/05/18 23:50:23;;;;;;;4.43;2.10;;;;;;;10.14;50.07;101160.31;7980357;28;20065;-66
2021/05/18 23:54:17;;;;;;;2.70;1.70;;;;;;;10.12;50.16;101163.94;7978818;28;20626;-66
2021/05/18 23:58:07;;;;;;;3.70;1.95;;;;;;;10.13;50.15;101168.25;7978247;28;20033;-66
